sensor_id;sensor_type;location;lat;lon;timestamp;pressure;altitude;pressure_sealevel;temperature;humidity
50702;BME280;36670;50.094;8.496;2023-04-02T00:01:36;99439.41;;;12.67;70.33
50702;BME280;36670;50.094;8.496;2023-04-02T00:04:04;99440.00;;;12.93;69.07
50702;BME280;36670;50.094;8.496;2023-04-02T00:06:36;99452.41;;;12.66;69.41
50702;BME280;36670;50.094;8.496;2023-04-02T00:11:39;99462.19;;;12.53;70.34
50702;BME280;36670;50.094;8.496;2023-04-02T00:14:14;99462.16;;;12.58;70.53
50702;BME280;36670;50.094;8.496;2023-04-02T00:16:40;99466.63;;;12.54;70.86
50702;BME280;36670;50.094;8.496;2023-04-02T00:19:10;99462.19;;;12.53;70.78
50702;BME280;36670;50.094;8.496;2023-04-02T00:21:38;99470.41;;;12.63;70.80
50702;BME280;36670;50.094;8.496;2023-04-02T00:24:13;99467.31;;;12.75;70.11
50702;BME280;36670;50.094;8.496;2023-04-02T00:26:43;99475.69;;;12.65;70.77
50702;BME280;36670;50.094;8.496;2023-04-02T00:29:11;99479.69;;;12.83;69.68
50702;BME280;36670;50.094;8.496;2023-04-02T00:31:40;99473.38;;;12.77;69.56
50702;BME280;36670;50.094;8.496;2023-04-02T00:34:11;99478.00;;;12.87;69.91
50702;BME280;36670;50.094;8.496;2023-04-02T00:36:38;99479.69;;;12.83;69.46
50702;BME280;36670;50.094;8.496;2023-04-02T00:39:11;99484.63;;;12.91;70.17
50702;BME280;36670;50.094;8.496;2023-04-02T00:41:40;99472.63;;;13.06;69.55
50702;BME280;36670;50.094;8.496;2023-04-02T00:44:13;99479.44;;;13.19;68.57
50702;BME280;36670;50.094;8.496;2023-04-02T00:46:41;99483.63;;;13.17;68.67
50702;BME280;36670;50.094;8.496;2023-04-02T00:49:19;99487.06;;;13.03;69.57
50702;BME280;36670;50.094;8.496;2023-04-02T00:51:52;99489.63;;;12.94;68.83
50702;BME280;36670;50.094;8.496;2023-04-02T00:54:22;99485.41;;;12.62;70.20
50702;BME280;36670;50.094;8.496;2023-04-02T00:56:52;99487.00;;;12.74;69.61
50702;BME280;36670;50.094;8.496;2023-04-02T00:59:24;99488.78;;;12.49;71.06
50702;BME280;36670;50.094;8.496;2023-04-02T01:01:55;99489.09;;;12.87;69.19
50702;BME280;36670;50.094;8.496;2023-04-02T01:04:28;99491.13;;;12.76;69.20
50702;BME280;36670;50.094;8.496;2023-04-02T01:06:55;99496.81;;;12.51;70.06
50702;BME280;36670;50.094;8.496;2023-04-02T01:12:39;99505.97;;;12.46;70.21
50702;BME280;36670;50.094;8.496;2023-04-02T01:15:15;99507.66;;;12.47;70.82
50702;BME280;36670;50.094;8.496;2023-04-02T01:17:46;99502.41;;;12.40;70.35
50702;BME280;36670;50.094;8.496;2023-04-02T01:20:33;99516.47;;;12.49;70.69
50702;BME280;36670;50.094;8.496;2023-04-02T01:23:10;99511.75;;;12.55;70.14
50702;BME280;36670;50.094;8.496;2023-04-02T01:25:52;99505.34;;;12.59;70.23
50702;BME280;36670;50.094;8.496;2023-04-02T01:28:27;99517.88;;;12.46;70.70
50702;BME280;36670;50.094;8.496;2023-04-02T01:30:57;99518.94;;;12.56;70.16
50702;BME280;36670;50.094;8.496;2023-04-02T01:33:29;99521.28;;;12.28;70.71
50702;BME280;36670;50.094;8.496;2023-04-02T01:36:10;99528.22;;;12.25;71.25
50702;BME280;36670;50.094;8.496;2023-04-02T01:38:53;99534.88;;;12.19;70.59
50702;BME280;36670;50.094;8.496;2023-04-02T01:41:36;99531.84;;;12.10;71.16
50702;BME280;36670;50.094;8.496;2023-04-02T01:44:07;99534.81;;;12.35;71.04
50702;BME280;36670;50.094;8.496;2023-04-02T01:46:39;99540.53;;;12.54;70.10
50702;BME280;36670;50.094;8.496;2023-04-02T01:49:14;99545.53;;;12.57;70.32
50702;BME280;36670;50.094;8.496;2023-04-02T01:51:44;99541.66;;;12.53;69.79
50702;BME280;36670;50.094;8.496;2023-04-02T01:54:12;99552.53;;;12.28;70.88
50702;BME280;36670;50.094;8.496;2023-04-02T01:56:40;99553.94;;;12.26;71.34
50702;BME280;36670;50.094;8.496;2023-04-02T01:59:07;99555.91;;;12.20;70.49
50702;BME280;36670;50.094;8.496;2023-04-02T02:01:50;99552.97;;;12.56;70.66
50702;BME280;36670;50.094;8.496;2023-04-02T02:04:18;99561.06;;;12.48;70.89
50702;BME280;36670;50.094;8.496;2023-04-02T02:06:44;99557.69;;;12.61;69.65
50702;BME280;36670;50.094;8.496;2023-04-02T02:09:17;99563.50;;;12.59;70.09
50702;BME280;36670;50.094;8.496;2023-04-02T02:11:43;99565.38;;;12.69;69.97
50702;BME280;36670;50.094;8.496;2023-04-02T02:14:21;99565.38;;;12.69;69.46
50702;BME280;36670;50.094;8.496;2023-04-02T02:16:47;99561.81;;;12.63;69.44
50702;BME280;36670;50.094;8.496;2023-04-02T02:19:22;99567.09;;;12.65;69.70
50702;BME280;36670;50.094;8.496;2023-04-02T02:21:51;99569.88;;;12.55;69.63
50702;BME280;36670;50.094;8.496;2023-04-02T02:26:54;99570.81;;;12.35;70.65
50702;BME280;36670;50.094;8.496;2023-04-02T02:29:25;99574.97;;;12.22;70.63
50702;BME280;36670;50.094;8.496;2023-04-02T02:31:52;99581.88;;;12.29;70.27
50702;BME280;36670;50.094;8.496;2023-04-02T02:34:21;99584.09;;;12.27;71.03
50702;BME280;36670;50.094;8.496;2023-04-02T02:36:54;99592.63;;;12.41;70.27
50702;BME280;36670;50.094;8.496;2023-04-02T02:39:24;99591.53;;;12.48;69.84
50702;BME280;36670;50.094;8.496;2023-04-02T02:42:03;99597.03;;;12.53;70.16
50702;BME280;36670;50.094;8.496;2023-04-02T02:44:35;99598.44;;;12.45;70.03
50702;BME280;36670;50.094;8.496;2023-04-02T02:47:15;99597.91;;;12.38;70.62
50702;BME280;36670;50.094;8.496;2023-04-02T02:49:44;99606.25;;;12.27;70.36
50702;BME280;36670;50.094;8.496;2023-04-02T02:52:15;99606.53;;;12.26;70.96
50702;BME280;36670;50.094;8.496;2023-04-02T02:54:45;99609.22;;;12.46;70.01
50702;BME280;36670;50.094;8.496;2023-04-02T02:57:17;99615.88;;;12.51;70.18
50702;BME280;36670;50.094;8.496;2023-04-02T02:59:45;99610.31;;;12.61;70.15
50702;BME280;36670;50.094;8.496;2023-04-02T03:02:10;99612.78;;;12.57;69.67
50702;BME280;36670;50.094;8.496;2023-04-02T03:04:37;99608.94;;;12.53;69.66
50702;BME280;36670;50.094;8.496;2023-04-02T03:07:03;99620.06;;;12.38;70.48
50702;BME280;36670;50.094;8.496;2023-04-02T03:09:40;99619.88;;;12.08;71.36
50702;BME280;36670;50.094;8.496;2023-04-02T03:12:35;99623.44;;;12.09;71.06
50702;BME280;36670;50.094;8.496;2023-04-02T03:15:19;99629.50;;;12.21;71.40
50702;BME280;36670;50.094;8.496;2023-04-02T03:17:59;99637.28;;;12.19;70.97
50702;BME280;36670;50.094;8.496;2023-04-02T03:20:46;99637.81;;;12.21;71.54
50702;BME280;36670;50.094;8.496;2023-04-02T03:23:29;99640.00;;;12.35;70.52
50702;BME280;36670;50.094;8.496;2023-04-02T03:28:28;99657.16;;;12.37;70.26
50702;BME280;36670;50.094;8.496;2023-04-02T03:31:02;99661.03;;;12.41;70.62
50702;BME280;36670;50.094;8.496;2023-04-02T03:33:35;99665.47;;;12.42;70.71
50702;BME280;36670;50.094;8.496;2023-04-02T03:36:17;99659.59;;;12.54;70.40
50702;BME280;36670;50.094;8.496;2023-04-02T03:38:46;99673.16;;;12.55;69.63
50702;BME280;36670;50.094;8.496;2023-04-02T03:41:20;99677.28;;;12.63;69.66
50702;BME280;36670;50.094;8.496;2023-04-02T03:43:50;99675.84;;;12.86;69.20
50702;BME280;36670;50.094;8.496;2023-04-02T03:46:26;99689.66;;;12.91;69.70
50702;BME280;36670;50.094;8.496;2023-04-02T03:48:59;99685.25;;;12.80;69.39
50702;BME280;36670;50.094;8.496;2023-04-02T03:51:31;99687.03;;;12.40;69.91
50702;BME280;36670;50.094;8.496;2023-04-02T03:53:58;99690.91;;;12.54;70.32
50702;BME280;36670;50.094;8.496;2023-04-02T03:56:29;99691.19;;;12.48;69.66
50702;BME280;36670;50.094;8.496;2023-04-02T03:59:23;99697.81;;;12.41;70.13
50702;BME280;36670;50.094;8.496;2023-04-02T04:01:56;99703.06;;;12.53;69.88
50702;BME280;36670;50.094;8.496;2023-04-02T04:04:26;99704.16;;;12.62;69.97
50702;BME280;36670;50.094;8.496;2023-04-02T04:06:52;99709.16;;;12.66;69.73
50702;BME280;36670;50.094;8.496;2023-04-02T04:11:55;99714.13;;;12.63;69.78
50702;BME280;36670;50.094;8.496;2023-04-02T04:14:30;99721.34;;;12.54;70.32
50702;BME280;36670;50.094;8.496;2023-04-02T04:17:10;99730.72;;;12.63;69.36
50702;BME280;36670;50.094;8.496;2023-04-02T04:19:46;99723.00;;;12.66;69.05
50702;BME280;36670;50.094;8.496;2023-04-02T04:22:26;99725.19;;;12.69;69.57
50702;BME280;36670;50.094;8.496;2023-04-02T04:24:58;99728.53;;;12.60;69.33
50702;BME280;36670;50.094;8.496;2023-04-02T04:27:32;99732.16;;;12.56;69.96
50702;BME280;36670;50.094;8.496;2023-04-02T04:30:23;99738.25;;;12.53;69.93
50702;BME280;36670;50.094;8.496;2023-04-02T04:32:57;99741.31;;;12.51;69.60
50702;BME280;36670;50.094;8.496;2023-04-02T04:35:29;99741.56;;;12.50;69.33
50702;BME280;36670;50.094;8.496;2023-04-02T04:38:11;99750.44;;;12.36;70.18
50702;BME280;36670;50.094;8.496;2023-04-02T04:40:47;99749.06;;;12.34;69.49
50702;BME280;36670;50.094;8.496;2023-04-02T04:43:26;99760.13;;;12.34;70.23
50702;BME280;36670;50.094;8.496;2023-04-02T04:46:02;99755.44;;;12.29;70.11
50702;BME280;36670;50.094;8.496;2023-04-02T04:49:37;99764.56;;;12.24;69.78
50702;BME280;36670;50.094;8.496;2023-04-02T04:53:59;99779.22;;;12.45;69.67
50702;BME280;36670;50.094;8.496;2023-04-02T04:56:27;99779.78;;;12.48;69.78
50702;BME280;36670;50.094;8.496;2023-04-02T05:01:49;99790.59;;;12.39;70.23
50702;BME280;36670;50.094;8.496;2023-04-02T05:04:32;99788.94;;;12.38;69.59
50702;BME280;36670;50.094;8.496;2023-04-02T05:07:09;99796.13;;;12.49;69.39
50702;BME280;36670;50.094;8.496;2023-04-02T05:09:41;99791.13;;;12.46;70.34
50702;BME280;36670;50.094;8.496;2023-04-02T05:15:37;99803.03;;;12.26;70.00
50702;BME280;36670;50.094;8.496;2023-04-02T05:18:17;99810.50;;;12.25;70.74
50702;BME280;36670;50.094;8.496;2023-04-02T05:20:52;99815.50;;;12.49;69.81
50702;BME280;36670;50.094;8.496;2023-04-02T05:23:34;99817.69;;;12.68;69.79
50702;BME280;36670;50.094;8.496;2023-04-02T05:28:56;99827.69;;;12.53;70.34
50702;BME280;36670;50.094;8.496;2023-04-02T05:31:26;99823.81;;;12.39;69.73
50702;BME280;36670;50.094;8.496;2023-04-02T05:33:55;99835.16;;;12.32;70.14
50702;BME280;36670;50.094;8.496;2023-04-02T05:36:23;99835.97;;;12.48;70.57
50702;BME280;36670;50.094;8.496;2023-04-02T05:38:50;99844.84;;;12.60;70.25
50702;BME280;36670;50.094;8.496;2023-04-02T05:41:25;99846.50;;;12.61;69.63
50702;BME280;36670;50.094;8.496;2023-04-02T05:44:02;99852.06;;;12.67;69.66
50702;BME280;36670;50.094;8.496;2023-04-02T05:46:34;99849.00;;;12.68;69.54
50702;BME280;36670;50.094;8.496;2023-04-02T05:49:04;99854.53;;;12.73;68.88
50702;BME280;36670;50.094;8.496;2023-04-02T05:51:41;99862.56;;;12.75;68.88
50702;BME280;36670;50.094;8.496;2023-04-02T05:54:18;99859.53;;;12.76;69.21
50702;BME280;36670;50.094;8.496;2023-04-02T05:56:50;99866.44;;;12.74;69.15
50702;BME280;36670;50.094;8.496;2023-04-02T05:59:20;99877.53;;;12.69;69.85
50702;BME280;36670;50.094;8.496;2023-04-02T06:01:59;99870.31;;;12.57;69.31
50702;BME280;36670;50.094;8.496;2023-04-02T06:04:35;99878.84;;;12.09;70.11
50702;BME280;36670;50.094;8.496;2023-04-02T06:07:16;99892.28;;;11.85;71.73
50702;BME280;36670;50.094;8.496;2023-04-02T06:09:45;99892.78;;;11.67;72.74
50702;BME280;36670;50.094;8.496;2023-04-02T06:12:21;99898.25;;;11.51;72.93
50702;BME280;36670;50.094;8.496;2023-04-02T06:14:48;99896.19;;;11.26;73.59
50702;BME280;36670;50.094;8.496;2023-04-02T06:17:15;99903.47;;;11.05;75.01
50702;BME280;36670;50.094;8.496;2023-04-02T06:19:40;99903.97;;;10.91;75.53
50702;BME280;36670;50.094;8.496;2023-04-02T06:22:17;99912.25;;;10.97;76.09
50702;BME280;36670;50.094;8.496;2023-04-02T06:24:46;99920.59;;;11.02;75.60
50702;BME280;36670;50.094;8.496;2023-04-02T06:27:16;99925.25;;;10.96;75.78
50702;BME280;36670;50.094;8.496;2023-04-02T06:29:44;99941.06;;;11.06;76.27
50702;BME280;36670;50.094;8.496;2023-04-02T06:32:12;99952.41;;;10.72;76.14
50702;BME280;36670;50.094;8.496;2023-04-02T06:34:39;99962.75;;;10.10;75.02
50702;BME280;36670;50.094;8.496;2023-04-02T06:37:20;99962.69;;;9.61;76.55
50702;BME280;36670;50.094;8.496;2023-04-02T06:39:47;99973.44;;;9.23;77.47
50702;BME280;36670;50.094;8.496;2023-04-02T06:42:18;99982.88;;;9.10;77.93
50702;BME280;36670;50.094;8.496;2023-04-02T06:44:45;99989.03;;;9.00;78.06
50702;BME280;36670;50.094;8.496;2023-04-02T06:47:29;99991.97;;;8.94;77.61
50702;BME280;36670;50.094;8.496;2023-04-02T06:50:15;99994.28;;;8.85;77.78
50702;BME280;36670;50.094;8.496;2023-04-02T06:57:45;100012.47;;;8.86;79.10
50702;BME280;36670;50.094;8.496;2023-04-02T07:00:24;100029.94;;;8.92;78.52
50702;BME280;36670;50.094;8.496;2023-04-02T07:02:51;100034.72;;;8.96;78.41
50702;BME280;36670;50.094;8.496;2023-04-02T07:05:17;100044.47;;;9.04;77.37
50702;BME280;36670;50.094;8.496;2023-04-02T07:07:42;100037.78;;;9.00;76.78
50702;BME280;36670;50.094;8.496;2023-04-02T07:10:08;100049.16;;;9.03;77.04
50702;BME280;36670;50.094;8.496;2023-04-02T07:12:34;100049.44;;;8.90;76.62
50702;BME280;36670;50.094;8.496;2023-04-02T07:14:59;100064.03;;;8.91;76.65
50702;BME280;36670;50.094;8.496;2023-04-02T07:17:24;100068.06;;;9.00;77.23
50702;BME280;36670;50.094;8.496;2023-04-02T07:19:50;100072.06;;;8.92;77.54
50702;BME280;36670;50.094;8.496;2023-04-02T07:22:16;100081.94;;;8.76;77.27
50702;BME280;36670;50.094;8.496;2023-04-02T07:24:42;100078.22;;;8.53;77.52
50702;BME280;36670;50.094;8.496;2023-04-02T07:27:09;100089.72;;;8.38;77.60
50702;BME280;36670;50.094;8.496;2023-04-02T07:29:35;100099.03;;;8.37;78.37
50702;BME280;36670;50.094;8.496;2023-04-02T07:32:06;100106.44;;;8.49;78.63
50702;BME280;36670;50.094;8.496;2023-04-02T07:34:31;100105.53;;;8.72;78.24
50702;BME280;36670;50.094;8.496;2023-04-02T07:36:56;100108.97;;;8.50;77.58
50702;BME280;36670;50.094;8.496;2023-04-02T07:39:22;100126.19;;;8.58;78.23
50702;BME280;36670;50.094;8.496;2023-04-02T07:41:52;100126.28;;;8.39;77.83
50702;BME280;36670;50.094;8.496;2023-04-02T07:44:18;100130.38;;;8.48;77.79
50702;BME280;36670;50.094;8.496;2023-04-02T07:46:43;100129.31;;;8.49;77.61
50702;BME280;36670;50.094;8.496;2023-04-02T07:49:08;100136.84;;;8.54;78.27
50702;BME280;36670;50.094;8.496;2023-04-02T07:51:34;100136.25;;;8.52;77.15
50702;BME280;36670;50.094;8.496;2023-04-02T07:53:59;100140.06;;;8.51;77.16
50702;BME280;36670;50.094;8.496;2023-04-02T07:56:25;100148.81;;;8.48;76.59
50702;BME280;36670;50.094;8.496;2023-04-02T07:58:53;100158.28;;;8.28;77.06
50702;BME280;36670;50.094;8.496;2023-04-02T08:01:21;100150.97;;;8.22;78.22
50702;BME280;36670;50.094;8.496;2023-04-02T08:03:51;100162.66;;;8.41;76.77
50702;BME280;36670;50.094;8.496;2023-04-02T08:06:16;100180.84;;;8.30;76.54
50702;BME280;36670;50.094;8.496;2023-04-02T08:08:42;100178.72;;;8.09;76.51
50702;BME280;36670;50.094;8.496;2023-04-02T08:11:08;100186.00;;;8.15;76.89
50702;BME280;36670;50.094;8.496;2023-04-02T08:13:34;100194.97;;;7.86;76.90
50702;BME280;36670;50.094;8.496;2023-04-02T08:16:00;100211.72;;;7.85;76.99
50702;BME280;36670;50.094;8.496;2023-04-02T08:18:27;100214.66;;;7.72;77.17
50702;BME280;36670;50.094;8.496;2023-04-02T08:20:52;100214.41;;;7.73;77.93
50702;BME280;36670;50.094;8.496;2023-04-02T08:23:18;100216.72;;;7.88;77.26
50702;BME280;36670;50.094;8.496;2023-04-02T08:25:44;100239.19;;;7.85;77.19
50702;BME280;36670;50.094;8.496;2023-04-02T08:28:10;100237.84;;;7.76;77.79
50702;BME280;36670;50.094;8.496;2023-04-02T08:30:35;100229.81;;;7.62;77.11
50702;BME280;36670;50.094;8.496;2023-04-02T08:33:01;100245.66;;;7.48;77.64
50702;BME280;36670;50.094;8.496;2023-04-02T08:35:27;100241.81;;;7.38;78.21
50702;BME280;36670;50.094;8.496;2023-04-02T08:37:53;100250.97;;;7.31;77.60
50702;BME280;36670;50.094;8.496;2023-04-02T08:40:24;100254.41;;;7.57;77.53
50702;BME280;36670;50.094;8.496;2023-04-02T08:47:58;100265.16;;;7.59;76.96
50702;BME280;36670;50.094;8.496;2023-04-02T08:50:35;100282.00;;;7.62;76.85
50702;BME280;36670;50.094;8.496;2023-04-02T08:53:03;100285.03;;;7.73;76.21
50702;BME280;36670;50.094;8.496;2023-04-02T08:58:24;100289.59;;;7.79;74.49
50702;BME280;36670;50.094;8.496;2023-04-02T09:00:55;100301.06;;;7.76;73.74
50702;BME280;36670;50.094;8.496;2023-04-02T09:03:27;100307.16;;;7.78;74.53
50702;BME280;36670;50.094;8.496;2023-04-02T09:05:52;100312.53;;;7.73;75.14
50702;BME280;36670;50.094;8.496;2023-04-02T09:08:21;100305.25;;;7.78;73.96
50702;BME280;36670;50.094;8.496;2023-04-02T09:13:40;100317.91;;;7.79;73.80
50702;BME280;36670;50.094;8.496;2023-04-02T09:16:13;100346.75;;;7.89;73.84
50702;BME280;36670;50.094;8.496;2023-04-02T09:18:41;100327.25;;;7.90;73.61
50702;BME280;36670;50.094;8.496;2023-04-02T09:23:44;100343.16;;;7.88;74.34
50702;BME280;36670;50.094;8.496;2023-04-02T09:26:31;100365.59;;;8.15;73.28
50702;BME280;36670;50.094;8.496;2023-04-02T09:31:33;100364.09;;;8.31;72.83
50702;BME280;36670;50.094;8.496;2023-04-02T09:34:28;100371.03;;;8.34;72.63
50702;BME280;36670;50.094;8.496;2023-04-02T09:36:54;100384.16;;;8.32;71.18
50702;BME280;36670;50.094;8.496;2023-04-02T09:39:22;100378.09;;;8.30;72.46
50702;BME280;36670;50.094;8.496;2023-04-02T09:41:49;100375.69;;;8.33;71.08
50702;BME280;36670;50.094;8.496;2023-04-02T09:44:26;100383.59;;;7.99;71.46
50702;BME280;36670;50.094;8.496;2023-04-02T09:46:57;100383.94;;;7.91;71.51
50702;BME280;36670;50.094;8.496;2023-04-02T09:49:38;100404.63;;;7.94;71.82
50702;BME280;36670;50.094;8.496;2023-04-02T09:52:27;100396.00;;;7.90;70.69
50702;BME280;36670;50.094;8.496;2023-04-02T09:57:44;100406.50;;;8.12;70.44
50702;BME280;36670;50.094;8.496;2023-04-02T10:00:22;100425.75;;;8.24;70.47
50702;BME280;36670;50.094;8.496;2023-04-02T10:03:01;100411.34;;;8.40;69.39
50702;BME280;36670;50.094;8.496;2023-04-02T10:05:29;100431.41;;;8.29;69.12
50702;BME280;36670;50.094;8.496;2023-04-02T10:08:05;100430.06;;;8.19;68.93
50702;BME280;36670;50.094;8.496;2023-04-02T10:10:47;100425.28;;;8.45;69.96
50702;BME280;36670;50.094;8.496;2023-04-02T10:13:22;100441.44;;;8.65;68.83
50702;BME280;36670;50.094;8.496;2023-04-02T10:15:57;100457.47;;;8.57;68.50
50702;BME280;36670;50.094;8.496;2023-04-02T10:18:50;100449.59;;;8.60;68.38
50702;BME280;36670;50.094;8.496;2023-04-02T10:21:20;100452.06;;;8.50;69.75
50702;BME280;36670;50.094;8.496;2023-04-02T10:23:47;100450.38;;;8.91;70.20
50702;BME280;36670;50.094;8.496;2023-04-02T10:26:34;100430.84;;;8.93;70.04
50702;BME280;36670;50.094;8.496;2023-04-02T10:35:00;100473.31;;;8.73;69.15
50702;BME280;36670;50.094;8.496;2023-04-02T10:37:43;100485.38;;;8.60;68.50
50702;BME280;36670;50.094;8.496;2023-04-02T10:40:26;100480.44;;;8.50;68.03
50702;BME280;36670;50.094;8.496;2023-04-02T10:45:51;100492.78;;;8.60;67.39
50702;BME280;36670;50.094;8.496;2023-04-02T10:50:53;100500.78;;;8.49;66.82
50702;BME280;36670;50.094;8.496;2023-04-02T10:53:48;100508.19;;;8.30;67.39
50702;BME280;36670;50.094;8.496;2023-04-02T10:56:16;100506.00;;;8.20;67.38
50702;BME280;36670;50.094;8.496;2023-04-02T10:59:00;100518.31;;;8.18;67.18
50702;BME280;36670;50.094;8.496;2023-04-02T11:01:29;100515.22;;;8.45;67.12
50702;BME280;36670;50.094;8.496;2023-04-02T11:03:58;100522.16;;;8.47;66.86
50702;BME280;36670;50.094;8.496;2023-04-02T11:06:30;100516.88;;;8.64;66.07
50702;BME280;36670;50.094;8.496;2023-04-02T11:09:03;100533.00;;;8.73;64.77
50702;BME280;36670;50.094;8.496;2023-04-02T11:11:35;100527.25;;;8.62;64.55
50702;BME280;36670;50.094;8.496;2023-04-02T11:14:24;100531.34;;;8.71;65.54
50702;BME280;36670;50.094;8.496;2023-04-02T11:16:51;100537.13;;;8.82;65.10
50702;BME280;36670;50.094;8.496;2023-04-02T11:21:45;100556.63;;;8.50;65.43
50702;BME280;36670;50.094;8.496;2023-04-02T11:24:24;100554.88;;;8.37;66.65
50702;BME280;36670;50.094;8.496;2023-04-02T11:26:51;100544.19;;;8.29;66.53
50702;BME280;36670;50.094;8.496;2023-04-02T11:29:20;100559.56;;;8.67;66.65
50702;BME280;36670;50.094;8.496;2023-04-02T11:31:47;100566.34;;;8.95;66.55
50702;BME280;36670;50.094;8.496;2023-04-02T11:34:55;100578.97;;;8.72;66.12
50702;BME280;36670;50.094;8.496;2023-04-02T11:37:05;100583.13;;;8.44;66.22
50702;BME280;36670;50.094;8.496;2023-04-02T11:39:54;100576.91;;;8.18;66.33
50702;BME280;36670;50.094;8.496;2023-04-02T11:42:24;100603.94;;;8.22;66.20
50702;BME280;36670;50.094;8.496;2023-04-02T11:44:51;100596.47;;;8.10;66.56
50702;BME280;36670;50.094;8.496;2023-04-02T11:47:21;100592.00;;;8.28;65.35
50702;BME280;36670;50.094;8.496;2023-04-02T11:52:33;100596.28;;;8.61;65.04
50702;BME280;36670;50.094;8.496;2023-04-02T11:57:50;100602.75;;;8.54;65.95
50702;BME280;36670;50.094;8.496;2023-04-02T12:03:24;100613.56;;;8.31;64.61
50702;BME280;36670;50.094;8.496;2023-04-02T12:06:00;100628.09;;;8.38;64.89
50702;BME280;36670;50.094;8.496;2023-04-02T12:11:29;100635.59;;;8.49;63.51
50702;BME280;36670;50.094;8.496;2023-04-02T12:13:55;100638.59;;;8.48;64.20
50702;BME280;36670;50.094;8.496;2023-04-02T12:16:23;100635.28;;;8.58;63.99
50702;BME280;36670;50.094;8.496;2023-04-02T12:18:50;100621.56;;;8.88;63.45
50702;BME280;36670;50.094;8.496;2023-04-02T12:21:24;100636.88;;;8.96;63.37
50702;BME280;36670;50.094;8.496;2023-04-02T12:23:52;100651.88;;;9.00;63.33
50702;BME280;36670;50.094;8.496;2023-04-02T12:26:36;100652.97;;;9.41;62.60
50702;BME280;36670;50.094;8.496;2023-04-02T12:29:27;100659.38;;;9.23;61.86
50702;BME280;36670;50.094;8.496;2023-04-02T12:31:54;100660.38;;;9.29;62.30
50702;BME280;36670;50.094;8.496;2023-04-02T12:34:22;100665.88;;;9.29;62.29
50702;BME280;36670;50.094;8.496;2023-04-02T12:36:55;100675.41;;;8.65;62.69
50702;BME280;36670;50.094;8.496;2023-04-02T12:39:21;100675.34;;;8.53;63.35
50702;BME280;36670;50.094;8.496;2023-04-02T12:41:47;100686.66;;;8.64;63.64
50702;BME280;36670;50.094;8.496;2023-04-02T12:44:15;100683.03;;;8.82;63.19
50702;BME280;36670;50.094;8.496;2023-04-02T12:46:41;100679.81;;;9.03;63.63
50702;BME280;36670;50.094;8.496;2023-04-02T12:51:44;100692.81;;;8.96;61.97
50702;BME280;36670;50.094;8.496;2023-04-02T12:54:14;100698.94;;;8.98;62.30
50702;BME280;36670;50.094;8.496;2023-04-02T12:56:42;100699.56;;;8.82;62.46
50702;BME280;36670;50.094;8.496;2023-04-02T13:01:56;100713.34;;;8.63;63.55
50702;BME280;36670;50.094;8.496;2023-04-02T13:04:23;100709.28;;;8.84;62.61
50702;BME280;36670;50.094;8.496;2023-04-02T13:06:50;100725.09;;;8.89;61.97
50702;BME280;36670;50.094;8.496;2023-04-02T13:09:41;100724.09;;;8.83;62.17
50702;BME280;36670;50.094;8.496;2023-04-02T13:14:58;100728.69;;;8.52;62.86
50702;BME280;36670;50.094;8.496;2023-04-02T13:17:45;100722.44;;;8.64;63.46
50702;BME280;36670;50.094;8.496;2023-04-02T13:20:34;100727.47;;;8.67;62.66
50702;BME280;36670;50.094;8.496;2023-04-02T13:23:22;100737.16;;;8.32;62.24
50702;BME280;36670;50.094;8.496;2023-04-02T13:25:48;100731.84;;;8.31;62.75
50702;BME280;36670;50.094;8.496;2023-04-02T13:28:14;100751.78;;;8.26;62.64
50702;BME280;36670;50.094;8.496;2023-04-02T13:30:39;100736.56;;;8.05;63.34
50702;BME280;36670;50.094;8.496;2023-04-02T13:33:05;100735.75;;;8.23;62.65
50702;BME280;36670;50.094;8.496;2023-04-02T13:35:31;100725.38;;;8.44;63.44
50702;BME280;36670;50.094;8.496;2023-04-02T13:37:56;100742.00;;;8.56;62.47
50702;BME280;36670;50.094;8.496;2023-04-02T13:40:21;100743.28;;;8.53;62.20
50702;BME280;36670;50.094;8.496;2023-04-02T13:42:47;100789.50;;;8.44;62.16
50702;BME280;36670;50.094;8.496;2023-04-02T13:45:28;100754.78;;;8.43;62.48
50702;BME280;36670;50.094;8.496;2023-04-02T13:47:55;100747.97;;;8.27;62.53
50702;BME280;36670;50.094;8.496;2023-04-02T13:50:25;100750.03;;;8.32;62.05
50702;BME280;36670;50.094;8.496;2023-04-02T13:52:52;100758.94;;;8.09;62.36
50702;BME280;36670;50.094;8.496;2023-04-02T13:55:24;100765.59;;;7.69;63.50
50702;BME280;36670;50.094;8.496;2023-04-02T13:57:51;100762.06;;;7.62;63.83
50702;BME280;36670;50.094;8.496;2023-04-02T14:00:17;100787.13;;;7.72;64.51
50702;BME280;36670;50.094;8.496;2023-04-02T14:02:47;100779.66;;;7.79;63.83
50702;BME280;36670;50.094;8.496;2023-04-02T14:05:44;100784.84;;;7.94;63.52
50702;BME280;36670;50.094;8.496;2023-04-02T14:08:37;100796.53;;;7.90;63.43
50702;BME280;36670;50.094;8.496;2023-04-02T14:14:13;100802.00;;;7.96;63.57
50702;BME280;36670;50.094;8.496;2023-04-02T14:16:50;100802.78;;;7.72;64.24
50702;BME280;36670;50.094;8.496;2023-04-02T14:25:21;100821.53;;;7.81;63.12
50702;BME280;36670;50.094;8.496;2023-04-02T14:28:16;100824.91;;;7.83;62.74
50702;BME280;36670;50.094;8.496;2023-04-02T14:31:09;100837.56;;;7.52;63.70
50702;BME280;36670;50.094;8.496;2023-04-02T14:36:13;100840.75;;;7.49;64.03
50702;BME280;36670;50.094;8.496;2023-04-02T14:39:07;100836.91;;;7.57;63.14
50702;BME280;36670;50.094;8.496;2023-04-02T14:41:57;100856.72;;;7.66;63.11
50702;BME280;36670;50.094;8.496;2023-04-02T14:44:26;100870.34;;;7.47;63.02
50702;BME280;36670;50.094;8.496;2023-04-02T14:47:09;100854.94;;;7.46;63.52
50702;BME280;36670;50.094;8.496;2023-04-02T14:49:39;100857.97;;;7.70;62.88
50702;BME280;36670;50.094;8.496;2023-04-02T14:52:16;100859.06;;;7.62;63.85
50702;BME280;36670;50.094;8.496;2023-04-02T14:54:52;100847.19;;;7.75;62.84
50702;BME280;36670;50.094;8.496;2023-04-02T14:57:22;100862.97;;;7.86;63.48
50702;BME280;36670;50.094;8.496;2023-04-02T15:00:09;100866.03;;;8.03;63.22
50702;BME280;36670;50.094;8.496;2023-04-02T15:02:46;100895.09;;;7.86;63.09